createdAt,value
2023-03-05T00:04:42.694Z,99607.71
2023-03-05T00:09:45.583Z,99601.48
2023-03-05T00:14:48.491Z,99600.32
2023-03-05T00:19:51.317Z,99594.00
2023-03-05T00:24:54.189Z,99588.80
2023-03-05T00:29:57.201Z,99577.01
2023-03-05T00:34:59.994Z,99571.06
2023-03-05T00:40:04.421Z,99568.34
2023-03-05T00:45:09.627Z,99560.06
2023-03-05T00:50:12.494Z,99557.75
2023-03-05T00:55:15.406Z,99552.19
2023-03-05T01:00:18.776Z,99544.75
2023-03-05T01:05:21.740Z,99546.06
2023-03-05T01:10:28.063Z,99538.55
2023-03-05T01:15:30.885Z,99537.38
2023-03-05T01:20:34.091Z,99536.22
2023-03-05T01:25:37.097Z,99528.36
2023-03-05T01:30:39.900Z,99528.59
2023-03-05T01:35:43.055Z,99520.08
2023-03-05T01:40:46.237Z,99517.34
2023-03-05T01:46:07.727Z,99516.11
2023-03-05T01:51:10.864Z,99510.05
2023-03-05T01:56:13.976Z,99513.77
2023-03-05T02:01:17.355Z,99509.85
2023-03-05T02:06:20.190Z,99502.52
2023-03-05T02:11:23.292Z,99501.88
2023-03-05T02:16:26.037Z,99499.31
2023-03-05T02:21:37.298Z,99499.10
2023-03-05T02:26:40.512Z,99497.69
2023-03-05T02:31:43.637Z,99492.83
2023-03-05T02:36:46.935Z,99484.71
2023-03-05T02:41:49.738Z,99476.67
2023-03-05T02:46:53.581Z,99476.33
2023-03-05T02:51:56.459Z,99475.98
2023-03-05T02:56:59.369Z,99477.69
2023-03-05T03:02:02.266Z,99474.05
2023-03-05T03:07:05.272Z,99477.75
2023-03-05T03:12:08.495Z,99473.27
2023-03-05T03:17:14.361Z,99464.45
2023-03-05T03:22:17.262Z,99461.64
2023-03-05T03:27:20.177Z,99455.27
2023-03-05T03:32:23.117Z,99446.14
2023-03-05T03:37:25.976Z,99430.83
2023-03-05T03:42:28.876Z,99420.27
2023-03-05T03:47:31.782Z,99411.62
2023-03-05T03:52:34.894Z,99403.65
2023-03-05T03:57:37.700Z,99393.27
2023-03-05T04:02:40.692Z,99391.08
2023-03-05T04:07:45.549Z,99382.51
2023-03-05T04:12:48.558Z,99378.38
2023-03-05T04:17:51.354Z,99369.93
2023-03-05T04:22:54.263Z,99361.16
2023-03-05T04:27:57.160Z,99351.71
2023-03-05T04:33:00.079Z,99346.88
2023-03-05T04:38:03.069Z,99337.08
2023-03-05T04:43:06.687Z,99330.22
2023-03-05T04:48:11.362Z,99324.70
2023-03-05T04:53:14.229Z,99319.02
2023-03-05T04:58:17.060Z,99313.99
2023-03-05T05:03:19.938Z,99313.57
2023-03-05T05:08:23.357Z,99315.95
2023-03-05T05:13:26.764Z,99311.50
2023-03-05T05:18:29.676Z,99309.47
2023-03-05T05:23:32.573Z,99308.40
2023-03-05T05:28:35.909Z,99312.98
2023-03-05T05:33:39.095Z,99314.80
2023-03-05T05:38:42.209Z,99318.37
2023-03-05T05:43:45.810Z,99324.45
2023-03-05T05:48:48.948Z,99332.98
2023-03-05T05:53:52.358Z,99332.73
2023-03-05T05:58:55.380Z,99326.61
2023-03-05T06:03:58.470Z,99312.59
2023-03-05T06:09:01.374Z,99308.32
2023-03-05T06:14:05.069Z,99312.42
2023-03-05T06:19:12.037Z,99319.43
2023-03-05T06:24:15.003Z,99315.30
2023-03-05T06:29:18.345Z,99312.59
2023-03-05T06:34:21.624Z,99311.60
2023-03-05T06:39:24.429Z,99314.02
2023-03-05T06:44:27.427Z,99322.98
2023-03-05T06:49:30.231Z,99315.64
2023-03-05T06:54:33.137Z,99315.84
2023-03-05T06:59:35.937Z,99306.27
2023-03-05T07:04:38.837Z,99307.14
2023-03-05T07:09:44.309Z,99306.30
2023-03-05T07:14:47.204Z,99307.34
2023-03-05T07:19:50.135Z,99304.25
2023-03-05T07:24:53.019Z,99299.61
2023-03-05T07:29:55.915Z,99296.33
2023-03-05T07:34:58.818Z,99296.79
2023-03-05T07:40:01.730Z,99296.55
2023-03-05T07:45:05.259Z,99294.77
2023-03-05T07:50:09.126Z,99286.11
2023-03-05T07:55:12.176Z,99288.08
2023-03-05T08:00:15.723Z,99279.39
2023-03-05T08:05:18.804Z,99273.41
2023-03-05T08:10:21.709Z,99272.90
2023-03-05T08:15:25.122Z,99277.05
2023-03-05T08:20:27.988Z,99276.42
2023-03-05T08:25:31.713Z,99277.00
2023-03-05T08:30:34.546Z,99271.39
2023-03-05T08:35:37.846Z,99275.91
2023-03-05T08:40:40.866Z,99264.73
2023-03-05T08:45:43.770Z,99265.70
2023-03-05T08:50:46.671Z,99265.48
2023-03-05T08:55:58.915Z,99262.29
2023-03-05T09:01:01.800Z,99258.63
2023-03-05T09:06:08.125Z,99261.61
2023-03-05T09:11:13.350Z,99255.30
2023-03-05T09:16:17.977Z,99255.52
2023-03-05T09:21:21.427Z,99258.29
2023-03-05T09:26:24.305Z,99258.26
2023-03-05T09:31:27.337Z,99252.36
2023-03-05T09:36:32.079Z,99251.45
2023-03-05T09:41:53.911Z,99247.30
2023-03-05T09:47:15.748Z,99241.33
2023-03-05T09:52:23.677Z,99239.06
2023-03-05T09:57:38.814Z,99237.20
2023-03-05T10:02:51.085Z,99232.84
2023-03-05T10:08:01.509Z,99230.40
2023-03-05T10:13:28.737Z,99234.66
2023-03-05T10:18:42.451Z,99225.06
2023-03-05T10:23:50.712Z,99219.60
2023-03-05T10:29:21.195Z,99221.20
2023-03-05T10:34:31.335Z,99218.90
2023-03-05T10:39:43.421Z,99217.59
2023-03-05T10:45:00.219Z,99218.09
2023-03-05T10:50:12.828Z,99222.09
2023-03-05T10:55:19.525Z,99217.59
2023-03-05T11:00:25.770Z,99205.91
2023-03-05T11:05:47.256Z,99203.86
2023-03-05T11:11:08.473Z,99194.29
2023-03-05T11:16:25.093Z,99179.37
2023-03-05T11:21:28.818Z,99181.19
2023-03-05T11:26:32.127Z,99176.45
2023-03-05T11:31:34.830Z,99165.61
2023-03-05T11:36:42.769Z,99166.41
2023-03-05T11:41:48.530Z,99164.84
2023-03-05T11:46:56.400Z,99175.58
2023-03-05T11:52:17.333Z,99177.37
2023-03-05T11:57:23.448Z,99176.11
2023-03-05T12:02:28.044Z,99178.81
2023-03-05T12:07:40.653Z,99178.31
2023-03-05T12:13:03.109Z,99177.66
2023-03-05T12:18:08.873Z,99165.77
2023-03-05T12:23:14.698Z,99162.80
2023-03-05T12:28:46.113Z,99154.75
2023-03-05T12:33:49.013Z,99152.68
2023-03-05T12:38:54.507Z,99152.14
2023-03-05T12:44:06.394Z,99151.79
2023-03-05T12:49:18.201Z,99146.33
2023-03-05T12:54:29.009Z,99146.19
2023-03-05T12:59:46.086Z,99149.45
2023-03-05T13:04:52.734Z,99145.61
2023-03-05T13:09:58.285Z,99144.49
2023-03-05T13:15:06.566Z,99142.82
2023-03-05T13:20:40.723Z,99141.85
2023-03-05T13:25:56.644Z,99140.29
2023-03-05T13:31:04.120Z,99135.80
2023-03-05T13:36:07.576Z,99136.73
2023-03-05T13:41:38.708Z,99137.20
2023-03-05T13:46:44.994Z,99138.13
2023-03-05T13:51:54.703Z,99143.08
2023-03-05T13:57:08.524Z,99141.09
2023-03-05T14:02:18.406Z,99134.52
2023-03-05T14:07:47.607Z,99131.13
2023-03-05T14:12:51.123Z,99124.27
2023-03-05T14:18:09.450Z,99115.77
2023-03-05T14:23:30.935Z,99112.42
2023-03-05T14:28:34.680Z,99110.81
2023-03-05T14:33:37.685Z,99113.46
2023-03-05T14:38:43.021Z,99107.83
2023-03-05T14:43:46.052Z,99106.06
2023-03-05T14:48:48.960Z,99110.77
2023-03-05T14:53:51.983Z,99110.91
2023-03-05T14:58:55.485Z,99114.04
2023-03-05T15:03:58.491Z,99112.21
2023-03-05T15:09:01.907Z,99104.63
2023-03-05T15:14:04.805Z,99104.80
2023-03-05T15:19:09.550Z,99107.64
2023-03-05T15:24:14.902Z,99102.38
2023-03-05T15:29:17.712Z,99106.15
2023-03-05T15:34:20.615Z,99105.95
2023-03-05T15:39:27.311Z,99103.79
2023-03-05T15:44:30.215Z,99101.17
2023-03-05T15:49:33.237Z,99102.70
2023-03-05T15:54:36.978Z,99099.95
2023-03-05T15:59:40.520Z,99109.00
2023-03-05T16:04:43.367Z,99108.09
2023-03-05T16:09:50.378Z,99106.83
2023-03-05T16:14:53.271Z,99109.94
2023-03-05T16:19:56.379Z,99110.64
2023-03-05T16:25:01.366Z,99113.67
2023-03-05T16:30:05.521Z,99116.90
2023-03-05T16:35:11.973Z,99120.51
2023-03-05T16:40:15.539Z,99118.25
2023-03-05T16:45:18.429Z,99124.14
2023-03-05T16:50:21.474Z,99123.01
2023-03-05T16:55:24.286Z,99126.86
2023-03-05T17:00:27.188Z,99121.33
2023-03-05T17:05:30.189Z,99126.09
2023-03-05T17:10:33.710Z,99125.00
2023-03-05T17:15:36.919Z,99124.77
2023-03-05T17:20:40.924Z,99131.56
2023-03-05T17:25:43.851Z,99127.70
2023-03-05T17:30:46.800Z,99128.67
2023-03-05T17:35:50.090Z,99129.22
2023-03-05T17:40:53.485Z,99125.45
2023-03-05T17:45:59.916Z,99125.15
2023-03-05T17:51:03.002Z,99123.63
2023-03-05T17:56:13.881Z,99122.77
2023-03-05T18:01:29.732Z,99120.74
2023-03-05T18:06:32.681Z,99120.26
2023-03-05T18:11:36.101Z,99121.66
2023-03-05T18:16:39.207Z,99126.16
2023-03-05T18:21:42.317Z,99123.79
2023-03-05T18:26:45.117Z,99120.91
2023-03-05T18:31:48.117Z,99120.94
2023-03-05T18:36:51.698Z,99123.89
2023-03-05T18:41:55.465Z,99121.84
2023-03-05T18:46:58.359Z,99122.20
2023-03-05T18:52:01.571Z,99119.98
2023-03-05T18:57:04.372Z,99124.64
2023-03-05T19:02:14.449Z,99124.66
2023-03-05T19:07:17.369Z,99128.11
2023-03-05T19:12:22.650Z,99129.31
2023-03-05T19:17:26.116Z,99129.50
2023-03-05T19:22:29.750Z,99128.99
2023-03-05T19:27:33.064Z,99127.98
2023-03-05T19:32:36.214Z,99125.42
2023-03-05T19:37:39.072Z,99126.29
2023-03-05T19:42:42.088Z,99126.64
2023-03-05T19:47:45.087Z,99132.63
2023-03-05T19:52:47.984Z,99134.69
2023-03-05T19:57:50.886Z,99136.08
2023-03-05T20:02:53.790Z,99139.85
2023-03-05T20:07:57.129Z,99137.11
2023-03-05T20:13:00.008Z,99132.83
2023-03-05T20:18:02.910Z,99128.73
2023-03-05T20:23:05.816Z,99130.27
2023-03-05T20:28:08.722Z,99133.16
2023-03-05T20:33:11.723Z,99130.60
2023-03-05T20:38:22.478Z,99125.46
2023-03-05T20:43:28.796Z,99120.50
2023-03-05T20:48:34.443Z,99118.42
2023-03-05T20:53:37.232Z,99114.15
2023-03-05T20:58:40.172Z,99106.78
2023-03-05T21:03:42.990Z,99103.88
2023-03-05T21:08:45.981Z,99100.45
2023-03-05T21:13:49.190Z,99100.45
2023-03-05T21:18:53.060Z,99097.02
2023-03-05T21:23:56.033Z,99095.14
2023-03-05T21:28:59.027Z,99093.60
2023-03-05T21:34:01.931Z,99092.91
2023-03-05T21:39:04.836Z,99093.60
2023-03-05T21:44:08.733Z,99090.19
2023-03-05T21:49:12.689Z,99086.59
2023-03-05T21:54:15.485Z,99084.34
2023-03-05T21:59:18.391Z,99084.33
2023-03-05T22:04:21.290Z,99087.59
2023-03-05T22:09:24.109Z,99082.11
2023-03-05T22:14:26.962Z,99082.09
2023-03-05T22:19:30.002Z,99084.47
2023-03-05T22:24:32.798Z,99080.34
2023-03-05T22:29:35.642Z,99080.00
2023-03-05T22:34:38.504Z,99074.34
2023-03-05T22:39:41.405Z,99069.88
2023-03-05T22:44:44.216Z,99065.77
2023-03-05T22:49:47.110Z,99064.93
2023-03-05T22:54:50.016Z,99065.83
2023-03-05T22:59:53.529Z,99063.26
2023-03-05T23:05:00.642Z,99058.98
2023-03-05T23:10:08.786Z,99057.45
2023-03-05T23:15:15.166Z,99051.80
2023-03-05T23:20:21.213Z,99049.77
2023-03-05T23:25:27.523Z,99044.96
2023-03-05T23:30:37.309Z,99048.89
2023-03-05T23:35:43.185Z,99045.30
2023-03-05T23:40:48.921Z,99039.31
2023-03-05T23:45:55.250Z,99038.46
2023-03-05T23:50:58.207Z,99032.80
2023-03-05T23:56:01.511Z,99031.44
